createdAt,value
2022-11-29T00:01:07.846Z,101589.88
2022-11-29T00:03:34.504Z,101584.56
2022-11-29T00:06:09.714Z,101595.44
2022-11-29T00:08:36.619Z,101589.34
2022-11-29T00:11:08.094Z,101592.28
2022-11-29T00:13:34.903Z,101594.94
2022-11-29T00:16:04.804Z,101588.56
2022-11-29T00:18:31.428Z,101597.28
2022-11-29T00:20:57.813Z,101592.78
2022-11-29T00:23:24.190Z,101585.91
2022-11-29T00:25:50.486Z,101589.34
2022-11-29T00:28:17.120Z,101598.06
2022-11-29T00:30:43.472Z,101597.03
2022-11-29T00:33:09.782Z,101600.47
2022-11-29T00:35:38.724Z,101604.69
2022-11-29T00:38:05.024Z,101597.53
2022-11-29T00:40:31.423Z,101596.72
2022-11-29T00:42:59.465Z,101607.03
2022-11-29T00:45:30.635Z,101602.53
2022-11-29T00:47:56.992Z,101593.78
2022-11-29T00:50:23.420Z,101604.38
2022-11-29T00:52:49.819Z,101607.81
2022-11-29T00:55:17.812Z,101597.22
2022-11-29T00:57:44.206Z,101598.00
2022-11-29T01:00:11.011Z,101597.22
2022-11-29T01:02:37.370Z,101599.09
2022-11-29T01:05:03.887Z,101598.00
2022-11-29T01:07:30.207Z,101602.25
2022-11-29T01:09:56.538Z,101604.91
2022-11-29T01:12:22.845Z,101607.56
2022-11-29T01:14:49.130Z,101608.59
2022-11-29T01:17:15.461Z,101608.59
2022-11-29T01:19:46.439Z,101610.47
2022-11-29T01:22:17.782Z,101620.81
2022-11-29T01:24:46.214Z,101612.34
2022-11-29T01:27:12.721Z,101620.28
2022-11-29T01:29:39.151Z,101620.28
2022-11-29T01:32:05.498Z,101623.72
2022-11-29T01:34:31.926Z,101628.25
2022-11-29T01:36:58.734Z,101630.88
2022-11-29T01:39:25.108Z,101631.19
2022-11-29T01:41:51.413Z,101631.97
2022-11-29T01:44:17.625Z,101630.38
2022-11-29T01:46:46.244Z,101635.69
2022-11-29T01:49:20.866Z,101634.13
2022-11-29T01:52:02.820Z,101630.16
2022-11-29T01:54:30.570Z,101638.63
2022-11-29T01:56:59.010Z,101642.63
2022-11-29T01:59:29.266Z,101644.47
2022-11-29T02:02:05.081Z,101647.41
2022-11-29T02:04:36.589Z,101644.25
2022-11-29T02:07:03.688Z,101644.25
2022-11-29T02:09:30.089Z,101650.31
2022-11-29T02:12:15.381Z,101643.19
2022-11-29T02:14:50.510Z,101647.41
2022-11-29T02:17:35.498Z,101644.25
2022-11-29T02:20:16.929Z,101645.84
2022-11-29T02:22:56.267Z,101635.81
2022-11-29T02:26:03.041Z,101649.53
2022-11-29T02:28:46.130Z,101650.31
2022-11-29T02:31:43.551Z,101659.63
2022-11-29T02:34:28.282Z,101657.53
2022-11-29T02:37:16.913Z,101649.38
2022-11-29T02:40:12.774Z,101653.38
2022-11-29T02:42:56.560Z,101658.16
2022-11-29T02:45:32.541Z,101657.09
2022-11-29T02:48:44.486Z,101658.94
2022-11-29T02:51:56.732Z,101662.38
2022-11-29T02:55:00.537Z,101669.84
2022-11-29T02:57:43.251Z,101663.50
2022-11-29T03:00:15.974Z,101670.66
2022-11-29T03:02:47.116Z,101665.09
2022-11-29T03:05:35.261Z,101677.78
2022-11-29T03:08:27.984Z,101686.50
2022-11-29T03:11:13.835Z,101677.25
2022-11-29T03:14:01.566Z,101681.75
2022-11-29T03:16:59.566Z,101685.19
2022-11-29T03:19:47.243Z,101678.84
2022-11-29T03:22:20.353Z,101680.97
2022-11-29T03:24:49.746Z,101687.84
2022-11-29T03:27:45.279Z,101696.31
2022-11-29T03:30:14.282Z,101693.97
2022-11-29T03:33:08.833Z,101702.16
2022-11-29T03:36:01.956Z,101705.88
2022-11-29T03:38:38.434Z,101705.59
2022-11-29T03:41:16.307Z,101714.31
2022-11-29T03:43:57.358Z,101711.44
2022-11-29T03:46:43.493Z,101709.56
2022-11-29T03:49:19.018Z,101715.94
2022-11-29T03:52:04.024Z,101721.22
2022-11-29T03:55:06.028Z,101717.84
2022-11-29T03:58:04.643Z,101722.84
2022-11-29T04:01:00.299Z,101725.22
2022-11-29T04:04:03.510Z,101736.59
2022-11-29T04:06:45.246Z,101733.44
2022-11-29T04:10:02.959Z,101730.00
2022-11-29T04:13:26.732Z,101727.41
2022-11-29T04:16:26.639Z,101741.97
2022-11-29T04:19:34.502Z,101734.31
2022-11-29T04:22:31.441Z,101743.03
2022-11-29T04:25:36.729Z,101745.97
2022-11-29T04:28:18.887Z,101741.22
2022-11-29T04:31:04.948Z,101742.56
2022-11-29T04:33:46.582Z,101745.75
2022-11-29T04:36:34.389Z,101754.53
2022-11-29T04:39:23.426Z,101755.81
2022-11-29T04:42:02.022Z,101747.09
2022-11-29T04:44:53.785Z,101756.09
2022-11-29T04:47:40.270Z,101753.72
2022-11-29T04:50:06.811Z,101757.97
2022-11-29T04:53:11.227Z,101758.22
2022-11-29T04:56:10.292Z,101764.06
2022-11-29T04:58:46.071Z,101765.41
2022-11-29T05:01:33.606Z,101768.06
2022-11-29T05:04:19.103Z,101771.78
2022-11-29T05:07:03.958Z,101774.13
2022-11-29T05:10:00.383Z,101773.09
2022-11-29T05:12:38.558Z,101781.03
2022-11-29T05:15:40.600Z,101783.69
2022-11-29T05:18:44.674Z,101789.75
2022-11-29T05:21:36.863Z,101796.63
2022-11-29T05:24:47.069Z,101799.78
2022-11-29T05:27:39.099Z,101799.78
2022-11-29T05:30:14.204Z,101808.81
2022-11-29T05:33:02.127Z,101807.72
2022-11-29T05:35:50.005Z,101809.59
2022-11-29T05:39:01.291Z,101809.31
2022-11-29T05:41:52.254Z,101817.25
2022-11-29T05:44:32.417Z,101804.00
2022-11-29T05:47:02.777Z,101820.44
2022-11-29T05:49:49.793Z,101819.66
2022-11-29T05:52:34.854Z,101823.34
2022-11-29T05:55:22.658Z,101829.69
2022-11-29T05:58:04.322Z,101832.09
2022-11-29T06:00:43.446Z,101841.63
2022-11-29T06:03:21.774Z,101848.47
2022-11-29T06:05:56.566Z,101844.25
2022-11-29T06:08:43.163Z,101846.38
2022-11-29T06:11:17.387Z,101845.34
2022-11-29T06:14:08.356Z,101848.75
2022-11-29T06:17:25.785Z,101845.34
2022-11-29T06:20:14.798Z,101840.03
2022-11-29T06:23:02.739Z,101849.84
2022-11-29T06:25:43.218Z,101854.31
2022-11-29T06:28:15.552Z,101853.53
2022-11-29T06:30:55.335Z,101855.38
2022-11-29T06:33:31.243Z,101865.47
2022-11-29T06:36:10.069Z,101868.66
2022-11-29T06:38:36.858Z,101871.28
2022-11-29T06:41:03.893Z,101876.34
2022-11-29T06:43:32.195Z,101871.84
2022-11-29T06:46:45.317Z,101881.06
2022-11-29T06:49:20.697Z,101881.84
2022-11-29T06:52:04.986Z,101882.94
2022-11-29T06:54:50.200Z,101889.28
2022-11-29T06:57:43.201Z,101898.03
2022-11-29T07:00:19.243Z,101904.38
2022-11-29T07:02:59.601Z,101904.13
2022-11-29T07:05:35.454Z,101899.59
2022-11-29T07:08:12.168Z,101901.47
2022-11-29T07:10:40.526Z,101906.47
2022-11-29T07:13:07.074Z,101918.13
2022-11-29T07:15:34.045Z,101914.41
2022-11-29T07:18:17.521Z,101919.47
2022-11-29T07:21:08.538Z,101931.63
2022-11-29T07:23:47.114Z,101930.06
2022-11-29T07:26:43.357Z,101941.44
2022-11-29T07:29:44.769Z,101939.03
2022-11-29T07:32:29.467Z,101943.28
2022-11-29T07:35:07.716Z,101945.94
2022-11-29T07:37:57.755Z,101950.44
2022-11-29T07:40:37.175Z,101953.88
2022-11-29T07:43:28.368Z,101955.75
2022-11-29T07:45:57.049Z,101957.56
2022-11-29T07:48:23.423Z,101966.34
2022-11-29T07:50:49.840Z,101974.28
2022-11-29T07:53:18.432Z,101966.06
2022-11-29T07:55:45.529Z,101969.00
2022-11-29T07:58:13.048Z,101971.66
2022-11-29T08:00:42.780Z,101974.00
2022-11-29T08:03:10.590Z,101981.16
2022-11-29T08:05:38.351Z,101985.66
2022-11-29T08:08:05.847Z,101988.56
2022-11-29T08:10:32.836Z,101987.28
2022-11-29T08:13:01.689Z,101986.22
2022-11-29T08:15:32.042Z,101989.66
2022-11-29T08:18:00.684Z,101994.97
2022-11-29T08:20:27.106Z,101993.66
2022-11-29T08:22:54.884Z,101993.66
2022-11-29T08:25:21.186Z,101996.81
2022-11-29T08:27:47.542Z,101997.34
2022-11-29T08:30:13.992Z,101997.09
2022-11-29T08:32:41.472Z,101997.88
2022-11-29T08:35:09.928Z,101996.81
2022-11-29T08:37:37.395Z,101999.44
2022-11-29T08:40:05.725Z,101998.38
2022-11-29T08:42:32.060Z,102001.56
2022-11-29T08:44:58.497Z,101999.97
2022-11-29T08:47:36.921Z,102010.28
2022-11-29T08:50:12.577Z,102005.28
2022-11-29T08:53:00.698Z,102010.56
2022-11-29T08:55:31.695Z,102010.56
2022-11-29T09:01:23.920Z,102017.44
2022-11-29T09:03:59.402Z,102016.88
2022-11-29T09:06:27.832Z,102018.47
2022-11-29T09:08:56.183Z,102029.59
2022-11-29T09:11:24.293Z,102021.38
2022-11-29T09:13:53.927Z,102027.44
2022-11-29T09:16:23.598Z,102028.50
2022-11-29T09:18:51.791Z,102027.16
2022-11-29T09:21:18.899Z,102039.88
2022-11-29T09:23:46.230Z,102038.00
2022-11-29T09:26:18.789Z,102027.41
2022-11-29T09:28:46.696Z,102025.81
2022-11-29T09:31:15.644Z,102033.22
2022-11-29T09:33:42.440Z,102041.69
2022-11-29T09:36:11.009Z,102040.06
2022-11-29T09:38:38.637Z,102042.41
2022-11-29T09:41:28.509Z,102047.47
2022-11-29T09:44:00.660Z,102056.72
2022-11-29T09:46:35.791Z,102050.88
2022-11-29T09:49:08.184Z,102058.81
2022-11-29T09:51:44.035Z,102062.47
2022-11-29T09:54:16.716Z,102070.69
2022-11-29T09:56:49.890Z,102068.31
2022-11-29T09:59:24.710Z,102071.75
2022-11-29T10:02:03.858Z,102068.88
2022-11-29T10:04:36.798Z,102072.84
2022-11-29T10:07:18.621Z,102070.44
2022-11-29T10:09:51.123Z,102078.38
2022-11-29T10:12:31.598Z,102080.00
2022-11-29T10:15:05.427Z,102080.78
2022-11-29T10:17:34.957Z,102082.88
2022-11-29T10:20:09.119Z,102089.53
2022-11-29T10:23:02.781Z,102081.78
2022-11-29T10:25:35.802Z,102075.47
2022-11-29T10:28:06.169Z,102070.41
2022-11-29T10:30:35.913Z,102073.81
2022-11-29T10:33:02.733Z,102067.47
2022-11-29T10:35:29.634Z,102068.50
2022-11-29T10:38:29.725Z,102079.59
2022-11-29T10:40:50.963Z,102077.47
2022-11-29T10:43:17.324Z,102077.72
2022-11-29T10:45:50.558Z,102076.91
2022-11-29T10:48:19.864Z,102068.97
2022-11-29T10:50:48.646Z,102071.59
2022-11-29T10:53:18.217Z,102080.09
2022-11-29T10:55:47.406Z,102071.59
2022-11-29T10:58:28.267Z,102074.22
2022-11-29T11:00:57.368Z,102070.53
2022-11-29T11:03:52.800Z,102069.97
2022-11-29T11:06:22.689Z,102078.44
2022-11-29T11:08:53.462Z,102078.44
2022-11-29T11:11:29.326Z,102075.81
2022-11-29T11:14:00.624Z,102070.75
2022-11-29T11:16:31.684Z,102069.16
2022-11-29T11:19:28.048Z,102069.59
2022-11-29T11:21:56.476Z,102066.88
2022-11-29T11:24:35.857Z,102068.63
2022-11-29T11:27:02.465Z,102075.22
2022-11-29T11:29:37.601Z,102069.88
2022-11-29T11:32:07.324Z,102073.69
2022-11-29T11:34:36.152Z,102077.66
2022-11-29T11:37:14.736Z,102078.53
2022-11-29T11:39:47.063Z,102078.50
2022-11-29T11:42:39.822Z,102075.31
2022-11-29T11:45:09.581Z,102079.91
2022-11-29T11:47:43.135Z,102075.38
2022-11-29T11:50:28.330Z,102084.38
2022-11-29T11:52:58.094Z,102077.97
2022-11-29T11:55:32.399Z,102080.56
2022-11-29T11:58:04.643Z,102087.78
2022-11-29T12:01:03.892Z,102074.81
2022-11-29T12:03:57.516Z,102083.59
2022-11-29T12:06:38.991Z,102088.91
2022-11-29T12:09:18.515Z,102089.09
2022-11-29T12:12:10.003Z,102091.19
2022-11-29T12:14:47.412Z,102089.63
2022-11-29T12:17:29.486Z,102098.66
2022-11-29T12:20:12.935Z,102095.94
2022-11-29T12:22:48.689Z,102093.81
2022-11-29T12:25:31.784Z,102106.53
2022-11-29T12:27:58.666Z,102108.94
2022-11-29T12:30:25.786Z,102107.56
2022-11-29T12:33:05.517Z,102115.50
2022-11-29T12:35:50.007Z,102115.75
2022-11-29T12:38:38.637Z,102117.81
2022-11-29T12:41:42.639Z,102112.75
2022-11-29T12:44:42.273Z,102122.31
2022-11-29T12:47:35.188Z,102128.66
2022-11-29T12:50:01.154Z,102130.81
2022-11-29T12:52:47.049Z,102132.59
2022-11-29T12:55:31.864Z,102136.63
2022-11-29T12:58:10.481Z,102130.00
2022-11-29T13:00:46.523Z,102138.78
2022-11-29T13:03:33.916Z,102139.28
2022-11-29T13:06:12.587Z,102137.69
2022-11-29T13:09:01.954Z,102136.91
2022-11-29T13:11:39.317Z,102135.53
2022-11-29T13:14:43.199Z,102137.41
2022-11-29T13:17:31.667Z,102146.41
2022-11-29T13:20:19.044Z,102138.16
2022-11-29T13:22:52.862Z,102139.72
2022-11-29T13:25:32.377Z,102145.03
2022-11-29T13:28:04.373Z,102150.13
2022-11-29T13:30:31.630Z,102147.47
2022-11-29T13:33:16.491Z,102139.22
2022-11-29T13:36:08.568Z,102143.50
2022-11-29T13:38:43.393Z,102148.81
2022-11-29T13:41:27.187Z,102148.81
2022-11-29T13:44:09.679Z,102156.78
2022-11-29T13:46:46.723Z,102153.34
2022-11-29T13:49:50.866Z,102147.75
2022-11-29T13:52:43.131Z,102154.13
2022-11-29T13:55:12.434Z,102150.69
2022-11-29T13:58:18.823Z,102156.78
2022-11-29T14:00:45.419Z,102160.53
2022-11-29T14:03:23.896Z,102152.03
2022-11-29T14:06:09.983Z,102155.50
2022-11-29T14:09:17.242Z,102150.44
2022-11-29T14:11:49.095Z,102155.25
2022-11-29T14:14:16.682Z,102156.31
2022-11-29T14:16:42.939Z,102158.47
2022-11-29T14:19:09.861Z,102151.84
2022-11-29T14:22:07.130Z,102158.53
2022-11-29T14:24:38.862Z,102149.53
2022-11-29T14:27:14.278Z,102158.31
2022-11-29T14:29:50.032Z,102159.13
2022-11-29T14:32:24.499Z,102160.78
2022-11-29T14:34:57.398Z,102161.31
2022-11-29T14:37:32.907Z,102165.38
2022-11-29T14:40:04.091Z,102167.31
2022-11-29T14:42:31.300Z,102174.25
2022-11-29T14:45:01.338Z,102176.97
2022-11-29T14:47:32.827Z,102176.75
2022-11-29T14:50:05.381Z,102180.50
2022-11-29T14:52:35.785Z,102174.69
2022-11-29T14:55:38.906Z,102171.03
2022-11-29T14:58:16.436Z,102177.69
2022-11-29T15:00:48.454Z,102181.19
2022-11-29T15:03:52.541Z,102182.50
2022-11-29T15:06:50.127Z,102166.63
2022-11-29T15:09:24.968Z,102170.13
2022-11-29T15:12:24.018Z,102174.09
2022-11-29T15:15:09.821Z,102173.31
2022-11-29T15:18:40.704Z,102175.19
2022-11-29T15:21:33.756Z,102177.88
2022-11-29T15:24:14.365Z,102177.88
2022-11-29T15:27:40.188Z,102190.06
2022-11-29T15:31:03.222Z,102184.22
2022-11-29T15:34:25.343Z,102183.72
2022-11-29T15:36:52.907Z,102194.28
2022-11-29T15:39:31.549Z,102188.47
2022-11-29T15:42:32.729Z,102198.47
2022-11-29T15:45:18.164Z,102194.53
2022-11-29T15:48:23.237Z,102200.06
2022-11-29T15:51:13.072Z,102199.78
2022-11-29T15:54:13.329Z,102210.88
2022-11-29T15:56:47.098Z,102210.63
2022-11-29T15:59:21.491Z,102210.09
2022-11-29T16:01:59.259Z,102210.63
2022-11-29T16:04:27.235Z,102205.84
2022-11-29T16:06:58.153Z,102209.03
2022-11-29T16:09:42.935Z,102210.09
2022-11-29T16:12:13.984Z,102205.03
2022-11-29T16:15:01.148Z,102211.91
2022-11-29T16:17:32.485Z,102214.31
2022-11-29T16:20:21.316Z,102224.66
2022-11-29T16:23:05.185Z,102213.03
2022-11-29T16:25:37.361Z,102217.53
2022-11-29T16:28:06.542Z,102217.56
2022-11-29T16:30:33.203Z,102211.72
2022-11-29T16:33:01.054Z,102223.38
2022-11-29T16:35:29.977Z,102221.53
2022-11-29T16:37:56.772Z,102221.81
2022-11-29T16:40:27.205Z,102222.34
2022-11-29T16:43:07.011Z,102229.75
2022-11-29T16:45:33.879Z,102218.63
2022-11-29T16:48:01.524Z,102227.09
2022-11-29T16:50:29.891Z,102222.63
2022-11-29T16:53:17.613Z,102222.09
2022-11-29T16:55:47.409Z,102231.38
2022-11-29T16:58:13.792Z,102226.06
2022-11-29T17:00:40.209Z,102226.06
2022-11-29T17:03:06.520Z,102227.66
2022-11-29T17:05:32.886Z,102229.25
2022-11-29T17:08:00.211Z,102229.75
2022-11-29T17:10:27.403Z,102233.19
2022-11-29T17:12:53.753Z,102235.84
2022-11-29T17:15:20.059Z,102230.03
2022-11-29T17:17:46.454Z,102234.53
2022-11-29T17:20:13.362Z,102238.25
2022-11-29T17:22:40.136Z,102240.88
2022-11-29T17:25:08.484Z,102243.53
2022-11-29T17:27:35.721Z,102239.03
2022-11-29T17:30:03.363Z,102247.78
2022-11-29T17:32:30.025Z,102245.91
2022-11-29T17:34:56.355Z,102245.13
2022-11-29T17:37:22.690Z,102246.72
2022-11-29T17:39:49.209Z,102247.50
2022-11-29T17:42:15.612Z,102253.59
2022-11-29T17:44:42.534Z,102255.16
2022-11-29T17:47:10.502Z,102252.28
2022-11-29T17:49:37.134Z,102247.78
2022-11-29T17:52:03.439Z,102259.94
2022-11-29T17:54:33.076Z,102248.56
2022-11-29T17:57:00.669Z,102248.56
2022-11-29T17:59:27.116Z,102257.31
2022-11-29T18:01:53.512Z,102260.75
2022-11-29T18:04:19.899Z,102262.31
2022-11-29T18:06:49.709Z,102262.31
2022-11-29T18:09:17.754Z,102269.19
2022-11-29T18:11:48.660Z,102266.56
2022-11-29T18:14:20.552Z,102267.38
2022-11-29T18:16:47.089Z,102271.59
2022-11-29T18:19:17.036Z,102273.19
2022-11-29T18:21:45.681Z,102280.06
2022-11-29T18:24:15.135Z,102280.06
2022-11-29T18:26:43.053Z,102287.75
2022-11-29T18:29:09.656Z,102279.81
2022-11-29T18:31:41.530Z,102288.03
2022-11-29T18:34:09.983Z,102292.81
2022-11-29T18:36:44.912Z,102289.34
2022-11-29T18:39:23.450Z,102283.25
2022-11-29T18:41:50.371Z,102282.22
2022-11-29T18:44:22.503Z,102286.44
2022-11-29T18:46:50.618Z,102290.94
2022-11-29T18:49:21.367Z,102291.19
2022-11-29T18:51:49.485Z,102296.75
2022-11-29T18:54:17.976Z,102294.66
2022-11-29T18:56:45.530Z,102306.03
2022-11-29T18:59:16.457Z,102301.78
2022-11-29T19:01:45.044Z,102301.78
2022-11-29T19:04:14.632Z,102304.19
2022-11-29T19:06:41.918Z,102302.84
2022-11-29T19:09:13.196Z,102297.53
2022-11-29T19:11:39.855Z,102307.06
2022-11-29T19:14:12.544Z,102310.53
2022-11-29T19:16:42.069Z,102311.34
2022-11-29T19:19:08.759Z,102306.84
2022-11-29T19:21:35.485Z,102307.91
2022-11-29T19:24:04.181Z,102311.34
2022-11-29T19:26:32.401Z,102307.63
2022-11-29T19:29:00.736Z,102304.97
2022-11-29T19:31:27.927Z,102304.72
2022-11-29T19:33:55.025Z,102310.78
2022-11-29T19:36:24.142Z,102313.44
2022-11-29T19:38:54.517Z,102314.50
2022-11-29T19:41:30.163Z,102311.84
2022-11-29T19:43:58.765Z,102315.31
2022-11-29T19:46:27.956Z,102316.09
2022-11-29T19:48:56.379Z,102310.78
2022-11-29T19:51:24.375Z,102310.78
2022-11-29T19:53:55.503Z,102315.56
2022-11-29T19:56:24.501Z,102319.00
2022-11-29T19:58:51.701Z,102320.59
2022-11-29T20:01:24.797Z,102324.03
2022-11-29T20:03:52.396Z,102322.19
2022-11-29T20:06:19.310Z,102335.69
2022-11-29T20:08:46.385Z,102331.19
2022-11-29T20:11:22.314Z,102333.03
2022-11-29T20:13:59.347Z,102328.81
2022-11-29T20:16:26.797Z,102338.34
2022-11-29T20:18:54.052Z,102330.41
2022-11-29T20:21:27.008Z,102340.19
2022-11-29T20:24:01.912Z,102336.47
2022-11-29T20:26:29.835Z,102341.00
2022-11-29T20:28:56.181Z,102333.84
2022-11-29T20:31:23.422Z,102337.28
2022-11-29T20:33:52.384Z,102336.47
2022-11-29T20:36:39.838Z,102338.06
2022-11-29T20:39:42.738Z,102338.06
2022-11-29T20:42:29.421Z,102338.84
2022-11-29T20:45:06.678Z,102342.56
2022-11-29T20:47:38.830Z,102339.13
2022-11-29T20:50:05.802Z,102347.88
2022-11-29T20:52:45.156Z,102351.56
2022-11-29T20:55:11.957Z,102354.75
2022-11-29T20:57:38.422Z,102358.19
2022-11-29T21:00:08.695Z,102361.66
2022-11-29T21:02:35.522Z,102368.53
2022-11-29T21:05:02.012Z,102368.00
2022-11-29T21:07:29.176Z,102361.66
2022-11-29T21:10:00.917Z,102360.03
2022-11-29T21:12:29.072Z,102356.38
2022-11-29T21:14:55.778Z,102363.25
2022-11-29T21:17:22.470Z,102364.03
2022-11-29T21:19:49.101Z,102369.34
2022-11-29T21:22:37.133Z,102368.28
2022-11-29T21:25:22.278Z,102378.88
2022-11-29T21:27:49.152Z,102377.00
2022-11-29T21:30:22.206Z,102375.94
2022-11-29T21:32:49.186Z,102373.31
2022-11-29T21:35:16.633Z,102379.66
2022-11-29T21:37:44.127Z,102382.31
2022-11-29T21:40:12.147Z,102386.53
2022-11-29T21:42:38.472Z,102384.69
2022-11-29T21:45:09.310Z,102387.09
2022-11-29T21:47:41.102Z,102381.00
2022-11-29T21:50:08.568Z,102383.66
2022-11-29T21:52:34.874Z,102382.84
2022-11-29T21:55:01.217Z,102387.88
2022-11-29T21:57:29.075Z,102386.03
2022-11-29T21:59:55.482Z,102388.69
2022-11-29T22:02:21.937Z,102384.19
2022-11-29T22:04:48.679Z,102392.91
2022-11-29T22:07:15.227Z,102391.31
2022-11-29T22:09:41.702Z,102390.53
2022-11-29T22:12:31.978Z,102390.25
2022-11-29T22:14:54.359Z,102392.91
2022-11-29T22:17:20.803Z,102397.16
2022-11-29T22:19:47.214Z,102391.59
2022-11-29T22:22:13.555Z,102400.34
2022-11-29T22:24:39.909Z,102394.78
2022-11-29T22:27:06.281Z,102394.50
2022-11-29T22:29:32.680Z,102394.50
2022-11-29T22:31:59.484Z,102397.16
2022-11-29T22:34:27.430Z,102394.50
2022-11-29T22:36:54.284Z,102397.16
2022-11-29T22:39:20.895Z,102407.50
2022-11-29T22:41:53.704Z,102403.25
2022-11-29T22:44:20.909Z,102403.25
2022-11-29T22:46:47.348Z,102405.09
2022-11-29T22:49:13.700Z,102408.56
2022-11-29T22:51:40.302Z,102405.91
2022-11-29T22:54:09.403Z,102414.91
2022-11-29T22:56:41.493Z,102415.69
2022-11-29T22:59:08.735Z,102412.25
2022-11-29T23:01:41.257Z,102417.56
2022-11-29T23:04:09.584Z,102412.53
2022-11-29T23:06:38.818Z,102421.28
2022-11-29T23:09:15.048Z,102425.78
2022-11-29T23:11:43.272Z,102425.78
2022-11-29T23:14:09.768Z,102425.78
2022-11-29T23:16:37.948Z,102426.00
2022-11-29T23:19:04.492Z,102419.94
2022-11-29T23:21:35.004Z,102428.94
2022-11-29T23:24:01.888Z,102424.69
2022-11-29T23:26:29.431Z,102426.56
2022-11-29T23:28:56.623Z,102426.56
2022-11-29T23:31:23.638Z,102425.75
2022-11-29T23:33:50.221Z,102428.13
2022-11-29T23:36:16.738Z,102426.56
2022-11-29T23:38:43.723Z,102428.41
2022-11-29T23:41:11.445Z,102426.25
2022-11-29T23:43:40.296Z,102423.09
2022-11-29T23:46:09.028Z,102426.25
2022-11-29T23:48:35.354Z,102434.22
2022-11-29T23:51:01.770Z,102428.38
2022-11-29T23:53:28.261Z,102434.75
2022-11-29T23:56:02.514Z,102432.09
2022-11-29T23:58:30.040Z,102428.38
